Time;durP1;ratioP1;P1;durP2;ratioP2;P2;SDS_P1;SDS_P2;PMS_P1;PMS_P2;Temp;Humidity;BMP_temperature;BMP_pressure;BME280_temperature;BME280_humidity;BME280_pressure;Samples;Min_cycle;Max_cycle;Signal;HPM_P1;HPM_P2
2022/10/16 00:00:44;;;;;;;10.32;5.72;;;13.70;99.90;;;;;;5033178;28;20478;-73
2022/10/16 00:03:10;;;;;;;13.45;5.80;;;13.60;99.90;;;;;;5033029;28;20395;-72
2022/10/16 00:05:41;;;;;;;12.15;6.40;;;13.60;99.90;;;;;;5033041;28;20472;-74
2022/10/16 00:08:08;;;;;;;13.38;6.43;;;13.60;99.90;;;;;;5032935;28;20422;-72
2022/10/16 00:10:34;;;;;;;9.63;6.00;;;13.60;99.90;;;;;;5033719;28;20383;-73
2022/10/16 00:13:00;;;;;;;13.35;6.18;;;13.50;99.90;;;;;;5033196;28;20743;-73
2022/10/16 00:15:25;;;;;;;9.80;6.00;;;13.50;99.90;;;;;;5034380;28;20531;-72
2022/10/16 00:17:51;;;;;;;10.10;6.00;;;13.50;99.90;;;;;;5034342;28;20480;-72
2022/10/16 00:20:16;;;;;;;11.45;5.28;;;13.60;99.90;;;;;;5033235;28;20398;-72
2022/10/16 00:22:42;;;;;;;11.80;6.00;;;13.50;99.90;;;;;;5035775;28;20407;-73
2022/10/16 00:25:08;;;;;;;8.23;5.67;;;13.50;99.90;;;;;;5036894;28;20898;-72
2022/10/16 00:27:34;;;;;;;12.77;7.20;;;13.40;99.90;;;;;;5036903;28;20918;-74
2022/10/16 00:29:59;;;;;;;12.93;5.73;;;13.50;99.90;;;;;;5037636;28;20387;-72
2022/10/16 00:32:25;;;;;;;11.13;5.50;;;13.50;99.90;;;;;;5037016;28;20469;-73
2022/10/16 00:34:50;;;;;;;11.87;6.00;;;13.50;99.90;;;;;;5037249;28;20387;-72
2022/10/16 00:37:16;;;;;;;7.67;5.10;;;13.40;99.90;;;;;;5036944;28;20450;-72
2022/10/16 00:39:42;;;;;;;9.55;6.88;;;13.30;99.90;;;;;;5036670;28;20405;-71
2022/10/16 00:42:14;;;;;;;13.13;7.13;;;13.30;99.90;;;;;;5037413;28;20762;-73
2022/10/16 00:44:53;;;;;;;8.73;6.20;;;13.30;99.90;;;;;;5036872;28;20414;-73
2022/10/16 00:47:21;;;;;;;12.77;6.40;;;13.20;99.90;;;;;;5037828;28;20470;-72
2022/10/16 00:49:49;;;;;;;10.98;6.43;;;13.20;99.90;;;;;;5037900;28;20387;-74
2022/10/16 00:52:15;;;;;;;11.40;6.45;;;13.10;99.90;;;;;;5037584;28;20462;-73
2022/10/16 00:54:40;;;;;;;9.07;6.97;;;13.10;99.90;;;;;;5037341;28;20387;-72
2022/10/16 00:57:06;;;;;;;13.50;6.40;;;13.10;99.90;;;;;;5037056;28;20387;-72
2022/10/16 00:59:35;;;;;;;7.82;5.38;;;13.20;99.90;;;;;;5036933;28;20410;-72
2022/10/16 01:02:02;;;;;;;10.77;6.15;;;13.10;99.90;;;;;;5036851;28;20462;-72
2022/10/16 01:04:32;;;;;;;11.95;6.05;;;13.10;99.90;;;;;;5037026;28;20443;-72
2022/10/16 01:07:35;;;;;;;10.95;6.57;;;13.00;99.90;;;;;;5036860;28;20399;-71
2022/10/16 01:10:07;;;;;;;7.70;4.78;;;13.20;99.90;;;;;;5035388;28;20433;-71
2022/10/16 01:12:48;;;;;;;8.32;5.00;;;13.00;99.90;;;;;;5035983;28;20415;-72
2022/10/16 01:15:47;;;;;;;5.97;4.47;;;13.00;99.90;;;;;;5036458;28;20768;-71
2022/10/16 01:18:39;;;;;;;7.15;4.70;;;13.00;99.90;;;;;;5035875;28;20474;-73
2022/10/16 01:21:26;;;;;;;9.73;5.80;;;12.90;99.90;;;;;;5035635;28;20931;-73
2022/10/16 01:24:08;;;;;;;8.77;4.90;;;12.90;99.90;;;;;;5036390;28;20407;-71
2022/10/16 01:27:02;;;;;;;8.70;5.60;;;12.90;99.90;;;;;;5035180;28;20405;-73
2022/10/16 01:29:39;;;;;;;8.68;5.47;;;12.80;99.90;;;;;;5034051;28;20395;-72
2022/10/16 01:32:21;;;;;;;7.53;4.93;;;12.80;99.90;;;;;;5025639;28;20405;-73
2022/10/16 01:35:11;;;;;;;8.48;4.10;;;12.80;99.90;;;;;;5035718;28;20498;-71
2022/10/16 01:37:53;;;;;;;11.38;5.65;;;12.90;99.90;;;;;;5035152;28;20422;-73
2022/10/16 01:40:20;;;;;;;8.50;4.93;;;12.90;99.90;;;;;;5035414;28;20400;-72
2022/10/16 01:42:55;;;;;;;8.43;5.28;;;13.10;99.90;;;;;;5033559;28;20468;-73
2022/10/16 01:45:21;;;;;;;8.27;5.63;;;13.20;99.90;;;;;;5034461;28;20488;-73
2022/10/16 01:47:49;;;;;;;6.60;4.35;;;13.20;99.90;;;;;;5033651;28;20921;-72
2022/10/16 01:50:17;;;;;;;10.05;4.40;;;13.30;99.90;;;;;;5035388;28;20789;-71
2022/10/16 01:52:46;;;;;;;7.30;5.50;;;13.30;99.90;;;;;;5034620;28;20458;-71
2022/10/16 01:55:15;;;;;;;4.70;3.90;;;13.30;99.90;;;;;;5034721;28;20863;-71
2022/10/16 01:57:45;;;;;;;5.87;3.90;;;13.40;99.90;;;;;;5035017;28;20544;-73
2022/10/16 02:00:14;;;;;;;10.93;6.43;;;13.50;99.90;;;;;;5034720;28;20391;-72
2022/10/16 02:02:47;;;;;;;6.90;4.50;;;13.50;99.90;;;;;;5033381;28;20407;-73
2022/10/16 02:05:20;;;;;;;13.35;5.35;;;13.50;99.90;;;;;;5034460;28;20454;-72
2022/10/16 02:07:45;;;;;;;9.98;5.13;;;13.40;99.90;;;;;;5034192;28;20367;-73
2022/10/16 02:10:11;;;;;;;8.23;4.87;;;13.40;99.90;;;;;;5034112;28;20593;-72
2022/10/16 02:12:40;;;;;;;9.53;6.20;;;13.30;99.90;;;;;;5033050;28;20383;-72
2022/10/16 02:15:06;;;;;;;9.20;5.25;;;13.20;99.90;;;;;;5033182;28;20394;-72
2022/10/16 02:17:32;;;;;;;8.40;6.20;;;13.20;99.90;;;;;;5033208;28;20391;-72
2022/10/16 02:20:00;;;;;;;5.35;3.95;;;13.20;99.90;;;;;;5033484;28;20398;-73
2022/10/16 02:22:36;;;;;;;8.10;6.03;;;13.30;99.90;;;;;;5033057;28;20383;-73
2022/10/16 02:25:09;;;;;;;8.38;5.10;;;13.40;99.90;;;;;;5032545;28;20384;-73
2022/10/16 02:27:57;;;;;;;9.27;4.50;;;13.40;99.90;;;;;;5034099;28;20411;-72
2022/10/16 02:31:11;;;;;;;7.07;4.57;;;13.40;99.90;;;;;;5033883;28;20383;-72
2022/10/16 02:33:38;;;;;;;6.30;4.68;;;13.50;99.90;;;;;;5032867;28;20510;-73
2022/10/16 02:36:04;;;;;;;5.15;4.43;;;13.50;99.90;;;;;;5034128;28;20600;-72
2022/10/16 02:38:30;;;;;;;4.78;4.20;;;13.60;99.90;;;;;;5032750;28;20414;-72
2022/10/16 02:40:56;;;;;;;7.17;3.60;;;13.70;99.90;;;;;;5033681;28;20383;-73
2022/10/16 02:43:22;;;;;;;9.27;4.73;;;13.80;99.90;;;;;;5033898;28;20566;-73
2022/10/16 02:45:47;;;;;;;4.30;3.70;;;13.80;99.90;;;;;;5034495;28;20852;-73
2022/10/16 02:48:13;;;;;;;4.50;3.28;;;13.90;99.90;;;;;;5034484;28;20879;-73
2022/10/16 02:50:38;;;;;;;3.58;3.20;;;13.90;99.90;;;;;;5035048;28;20462;-73
2022/10/16 02:53:04;;;;;;;4.47;3.20;;;13.90;99.90;;;;;;5034413;28;20384;-73
2022/10/16 02:55:29;;;;;;;5.00;4.20;;;14.00;99.90;;;;;;5034794;28;20402;-73
2022/10/16 02:57:55;;;;;;;5.82;3.75;;;14.00;99.90;;;;;;5034296;28;20502;-72
2022/10/16 03:00:20;;;;;;;8.07;5.60;;;14.10;99.90;;;;;;5033832;28;20390;-73
2022/10/16 03:02:46;;;;;;;9.37;5.83;;;14.00;99.90;;;;;;5034284;28;20417;-71
2022/10/16 03:05:12;;;;;;;4.78;3.75;;;14.00;99.90;;;;;;5034780;28;20383;-73
2022/10/16 03:07:38;;;;;;;3.25;2.90;;;13.90;99.90;;;;;;5034514;28;20759;-72
2022/10/16 03:10:04;;;;;;;6.07;4.80;;;13.80;99.90;;;;;;5035667;28;20397;-72
2022/10/16 03:12:30;;;;;;;4.73;4.23;;;13.90;99.90;;;;;;5034696;28;20395;-72
2022/10/16 03:14:56;;;;;;;8.60;5.47;;;13.80;99.90;;;;;;5034757;28;20440;-71
2022/10/16 03:17:22;;;;;;;5.20;2.67;;;13.80;99.90;;;;;;5034673;28;20752;-74
2022/10/16 03:19:48;;;;;;;5.75;3.90;;;13.70;99.90;;;;;;5034588;28;20379;-73
2022/10/16 03:22:13;;;;;;;5.60;3.70;;;13.70;99.90;;;;;;5033901;28;20394;-73
2022/10/16 03:24:39;;;;;;;7.27;5.50;;;13.70;99.90;;;;;;5035281;28;20741;-73
2022/10/16 03:27:05;;;;;;;6.57;3.90;;;13.80;99.90;;;;;;5035372;28;20749;-73
2022/10/16 03:29:31;;;;;;;10.40;5.30;;;13.70;99.90;;;;;;5034779;28;20391;-73
2022/10/16 03:31:57;;;;;;;6.78;4.40;;;13.50;99.90;;;;;;5038178;28;20390;-73
2022/10/16 03:34:23;;;;;;;5.07;3.57;;;13.50;99.90;;;;;;5038683;28;20395;-72
2022/10/16 03:36:48;;;;;;;3.40;2.97;;;13.50;99.90;;;;;;5035515;28;20500;-73
2022/10/16 03:39:14;;;;;;;4.18;3.33;;;13.50;99.90;;;;;;5034690;28;20399;-73
2022/10/16 03:41:39;;;;;;;3.53;2.70;;;13.60;99.90;;;;;;5033428;28;20941;-73
2022/10/16 03:44:05;;;;;;;3.15;2.80;;;13.50;99.90;;;;;;5033007;28;20928;-72
2022/10/16 03:46:31;;;;;;;5.03;3.65;;;13.50;99.90;;;;;;5033273;28;20391;-72
2022/10/16 03:48:56;;;;;;;3.50;3.20;;;13.40;99.90;;;;;;5031968;28;20748;-72
2022/10/16 03:51:22;;;;;;;2.63;2.43;;;13.30;99.90;;;;;;5032376;28;20387;-72
2022/10/16 03:53:47;;;;;;;3.73;2.60;;;13.30;99.90;;;;;;5033035;28;20417;-72
2022/10/16 03:56:13;;;;;;;4.17;3.67;;;13.30;99.90;;;;;;5032289;28;20994;-72
2022/10/16 03:58:39;;;;;;;4.88;3.10;;;13.20;99.90;;;;;;5035071;28;20423;-73
2022/10/16 04:01:04;;;;;;;3.28;2.97;;;13.10;99.90;;;;;;5038741;28;20391;-72
2022/10/16 04:03:30;;;;;;;5.50;3.30;;;13.00;99.90;;;;;;5036897;28;20407;-73
2022/10/16 04:05:55;;;;;;;4.80;3.10;;;13.00;99.90;;;;;;5038626;28;20450;-73
2022/10/16 04:08:21;;;;;;;5.10;3.60;;;12.80;99.90;;;;;;5038721;28;20394;-72
2022/10/16 04:10:46;;;;;;;5.60;2.70;;;12.90;99.90;;;;;;5037289;28;20396;-72
2022/10/16 04:13:12;;;;;;;3.10;2.80;;;12.80;99.90;;;;;;5039038;28;20422;-73
2022/10/16 04:15:38;;;;;;;5.95;2.80;;;12.70;99.90;;;;;;5039304;28;20387;-73
2022/10/16 04:18:04;;;;;;;6.53;3.80;;;12.70;99.90;;;;;;5038031;28;20394;-74
2022/10/16 04:20:30;;;;;;;3.20;2.90;;;12.80;99.90;;;;;;5037308;28;20415;-73
2022/10/16 04:22:55;;;;;;;5.57;4.50;;;12.80;99.90;;;;;;5036261;28;20446;-74
2022/10/16 04:25:21;;;;;;;6.32;3.83;;;12.90;99.90;;;;;;5035167;28;20461;-74
2022/10/16 04:27:47;;;;;;;4.88;3.80;;;12.90;99.90;;;;;;5038180;28;20391;-72
2022/10/16 04:30:13;;;;;;;6.60;5.00;;;12.90;99.90;;;;;;5037216;28;20375;-73
2022/10/16 04:32:39;;;;;;;4.20;2.67;;;13.00;99.90;;;;;;5042957;28;20387;-74
2022/10/16 04:35:04;;;;;;;5.70;3.00;;;12.90;99.90;;;;;;5051735;28;20410;-73
2022/10/16 04:37:30;;;;;;;3.08;2.88;;;12.80;99.90;;;;;;5045024;28;20397;-73
2022/10/16 04:39:56;;;;;;;3.70;3.17;;;12.70;99.90;;;;;;5038924;28;20394;-74
2022/10/16 04:42:21;;;;;;;4.40;3.30;;;12.70;99.90;;;;;;5036096;28;20390;-74
2022/10/16 04:44:47;;;;;;;3.67;3.08;;;12.90;99.90;;;;;;5036461;28;20460;-74
2022/10/16 04:47:13;;;;;;;7.82;4.80;;;12.80;99.90;;;;;;5037362;28;20466;-74
2022/10/16 04:49:39;;;;;;;2.90;2.60;;;12.80;99.90;;;;;;5038583;28;20795;-73
2022/10/16 04:52:04;;;;;;;3.17;2.80;;;12.70;99.90;;;;;;5039188;28;20387;-73
2022/10/16 04:54:30;;;;;;;4.90;2.90;;;12.80;99.90;;;;;;5036029;28;20391;-73
2022/10/16 04:56:55;;;;;;;4.32;2.95;;;12.80;99.90;;;;;;5035199;28;20453;-73
2022/10/16 04:59:22;;;;;;;4.47;3.08;;;12.70;99.90;;;;;;5036867;28;20478;-74
2022/10/16 05:01:48;;;;;;;6.60;3.60;;;12.90;99.90;;;;;;5041018;28;20387;-74
2022/10/16 05:04:14;;;;;;;3.60;2.78;;;12.90;99.90;;;;;;5040670;28;20561;-73
2022/10/16 05:06:40;;;;;;;7.18;4.10;;;12.80;99.90;;;;;;5040611;28;20470;-73
2022/10/16 05:09:06;;;;;;;5.65;2.85;;;12.90;99.90;;;;;;5040975;28;20398;-72
2022/10/16 05:11:32;;;;;;;2.97;2.72;;;13.00;99.90;;;;;;5042342;28;20399;-72
2022/10/16 05:13:58;;;;;;;3.95;3.55;;;12.80;99.90;;;;;;5042057;28;20445;-72
2022/10/16 05:16:23;;;;;;;3.83;3.40;;;12.70;99.90;;;;;;5039844;28;20391;-75
2022/10/16 05:18:49;;;;;;;5.30;3.10;;;12.70;99.90;;;;;;5039906;28;20446;-74
2022/10/16 05:21:15;;;;;;;3.40;2.83;;;12.70;99.90;;;;;;5040183;28;20398;-74
2022/10/16 05:23:40;;;;;;;4.00;3.30;;;12.70;99.90;;;;;;5039577;28;20453;-73
2022/10/16 05:26:06;;;;;;;6.00;3.43;;;12.60;99.90;;;;;;5039326;28;20391;-74
2022/10/16 05:28:31;;;;;;;4.70;3.00;;;12.70;99.90;;;;;;5040997;28;20394;-75
2022/10/16 05:30:57;;;;;;;4.80;3.40;;;12.60;99.90;;;;;;5039867;28;20383;-74
2022/10/16 05:33:25;;;;;;;7.30;3.25;;;12.70;99.90;;;;;;5039827;28;20756;-73
2022/10/16 05:35:51;;;;;;;3.30;3.00;;;12.60;99.90;;;;;;5041022;28;20383;-73
2022/10/16 05:38:17;;;;;;;2.45;2.30;;;12.60;99.90;;;;;;5041941;28;20387;-74
2022/10/16 05:40:43;;;;;;;4.25;2.78;;;12.60;99.90;;;;;;5042165;28;20387;-74
2022/10/16 05:43:09;;;;;;;5.75;4.07;;;12.60;99.90;;;;;;5041274;28;20473;-74
2022/10/16 05:45:34;;;;;;;2.53;2.33;;;12.70;99.90;;;;;;5041355;28;20390;-74
2022/10/16 05:48:00;;;;;;;3.38;2.25;;;12.60;99.90;;;;;;5040475;28;20387;-74
2022/10/16 05:50:26;;;;;;;3.55;2.28;;;12.80;99.90;;;;;;5041259;28;20445;-74
2022/10/16 05:52:52;;;;;;;3.47;2.80;;;12.80;99.90;;;;;;5038695;28;20422;-74
2022/10/16 05:55:17;;;;;;;2.93;2.40;;;12.90;99.90;;;;;;5038429;28;20403;-73
2022/10/16 05:57:43;;;;;;;4.03;3.22;;;12.80;99.90;;;;;;5039344;28;20430;-74
2022/10/16 06:00:10;;;;;;;3.60;3.00;;;12.90;99.90;;;;;;5038361;28;22995;-74
2022/10/16 06:02:36;;;;;;;4.57;2.40;;;12.90;99.90;;;;;;5040333;28;20417;-74
2022/10/16 06:05:01;;;;;;;4.30;3.90;;;12.80;99.90;;;;;;5038358;28;20459;-73
2022/10/16 06:07:27;;;;;;;4.10;3.45;;;12.90;99.90;;;;;;5038799;28;20387;-74
2022/10/16 06:09:53;;;;;;;4.32;2.83;;;12.90;99.90;;;;;;5039440;28;20445;-74
2022/10/16 06:12:19;;;;;;;3.42;2.90;;;12.90;99.90;;;;;;5039916;28;20383;-72
2022/10/16 06:14:46;;;;;;;4.15;3.50;;;12.90;99.90;;;;;;5040329;28;20902;-74
2022/10/16 06:17:13;;;;;;;5.15;3.70;;;12.90;99.90;;;;;;5040684;28;20383;-74
2022/10/16 06:19:39;;;;;;;8.35;5.57;;;12.90;99.90;;;;;;5039203;28;20378;-73
2022/10/16 06:22:04;;;;;;;7.60;3.53;;;13.00;99.90;;;;;;5039011;28;20379;-74
2022/10/16 06:24:30;;;;;;;3.33;2.83;;;13.10;99.90;;;;;;5038836;28;20967;-74
2022/10/16 06:26:55;;;;;;;4.10;2.80;;;13.10;99.90;;;;;;5038377;28;20479;-75
2022/10/16 06:29:21;;;;;;;4.00;2.90;;;13.30;99.90;;;;;;5038794;28;20430;-74
2022/10/16 06:31:46;;;;;;;5.55;2.97;;;13.20;99.90;;;;;;5038420;28;20445;-74
2022/10/16 06:34:12;;;;;;;4.40;2.90;;;13.20;99.90;;;;;;5037908;28;20379;-73
2022/10/16 06:36:38;;;;;;;3.07;2.77;;;13.10;99.90;;;;;;5035968;28;20864;-74
2022/10/16 06:39:06;;;;;;;3.67;2.90;;;13.20;99.90;;;;;;5038035;28;20469;-74
2022/10/16 06:41:32;;;;;;;4.03;2.90;;;13.20;99.90;;;;;;5038255;28;20491;-74
2022/10/16 06:43:58;;;;;;;5.55;4.00;;;13.30;99.90;;;;;;5040773;28;20627;-75
2022/10/16 06:46:25;;;;;;;5.90;2.70;;;13.40;99.90;;;;;;5039466;28;20398;-74
2022/10/16 06:48:52;;;;;;;5.88;2.90;;;13.50;99.90;;;;;;5040631;28;20393;-73
2022/10/16 06:51:20;;;;;;;3.97;3.45;;;13.40;99.90;;;;;;5041695;28;20383;-73
2022/10/16 06:53:48;;;;;;;4.28;3.33;;;13.50;99.90;;;;;;5041595;28;20430;-72
2022/10/16 06:56:20;;;;;;;8.27;4.45;;;13.50;99.90;;;;;;5040828;28;20686;-73
2022/10/16 06:58:47;;;;;;;4.78;3.30;;;13.70;99.90;;;;;;5041485;28;20406;-74
2022/10/16 07:01:13;;;;;;;8.30;3.00;;;13.70;99.90;;;;;;5040756;28;21133;-73
2022/10/16 07:03:40;;;;;;;4.25;2.78;;;13.70;99.90;;;;;;5039703;28;20414;-73
2022/10/16 07:06:08;;;;;;;6.53;4.07;;;13.70;99.90;;;;;;5041094;28;20478;-73
2022/10/16 07:08:35;;;;;;;4.32;3.50;;;13.60;99.90;;;;;;5037974;28;20379;-73
2022/10/16 07:11:03;;;;;;;9.45;5.38;;;13.50;99.90;;;;;;5038199;28;20403;-72
2022/10/16 07:13:29;;;;;;;6.40;2.90;;;13.50;99.90;;;;;;5038121;28;20391;-73
2022/10/16 07:15:54;;;;;;;8.20;4.88;;;13.50;99.90;;;;;;5039920;28;20488;-74
2022/10/16 07:18:20;;;;;;;5.37;4.20;;;13.50;99.90;;;;;;5042075;28;20399;-74
2022/10/16 07:20:46;;;;;;;4.20;3.30;;;13.50;99.90;;;;;;5042204;28;20453;-73
2022/10/16 07:23:11;;;;;;;6.00;3.10;;;13.60;99.90;;;;;;5019731;28;20408;-73
2022/10/16 07:25:37;;;;;;;5.20;4.27;;;13.60;99.90;;;;;;5040357;28;20399;-74
2022/10/16 07:28:02;;;;;;;11.77;6.65;;;13.80;99.90;;;;;;5042050;28;21053;-73
2022/10/16 07:30:28;;;;;;;8.93;6.15;;;13.70;99.90;;;;;;5042645;28;20383;-74
2022/10/16 07:32:53;;;;;;;7.37;4.40;;;13.70;99.90;;;;;;5038040;28;20768;-74
2022/10/16 07:35:19;;;;;;;6.90;4.70;;;13.60;99.90;;;;;;5036736;28;20385;-74
2022/10/16 07:37:46;;;;;;;6.47;4.70;;;13.50;99.90;;;;;;5041108;28;20911;-73
2022/10/16 07:40:11;;;;;;;11.43;8.82;;;13.70;99.90;;;;;;5040045;28;20390;-73
2022/10/16 07:42:37;;;;;;;9.05;6.30;;;13.70;99.90;;;;;;5037553;28;20490;-73
2022/10/16 07:45:03;;;;;;;6.70;5.90;;;13.70;99.90;;;;;;5036099;28;20402;-72
2022/10/16 07:47:28;;;;;;;9.25;4.50;;;13.80;99.90;;;;;;5038388;28;20394;-73
2022/10/16 07:49:54;;;;;;;4.67;3.70;;;13.90;99.90;;;;;;5038122;28;20390;-72
2022/10/16 07:52:19;;;;;;;7.50;4.20;;;14.00;99.90;;;;;;5036446;28;20423;-75
2022/10/16 07:54:45;;;;;;;5.15;3.10;;;14.20;99.90;;;;;;5033413;28;20410;-72
2022/10/16 07:57:10;;;;;;;5.28;3.10;;;14.30;99.90;;;;;;5032269;28;20390;-74
2022/10/16 07:59:36;;;;;;;6.63;3.53;;;14.50;99.90;;;;;;5031417;28;20441;-73
2022/10/16 08:02:02;;;;;;;6.37;3.60;;;14.60;99.90;;;;;;5030167;28;20401;-74
2022/10/16 08:04:27;;;;;;;3.80;3.40;;;14.70;99.10;;;;;;5030427;28;20407;-73
2022/10/16 08:06:54;;;;;;;5.00;3.30;;;14.80;98.20;;;;;;5029796;28;20403;-72
2022/10/16 08:09:20;;;;;;;4.60;2.93;;;15.00;92.80;;;;;;5029295;28;20776;-73
2022/10/16 08:11:45;;;;;;;6.32;3.10;;;15.20;88.20;;;;;;5029673;28;20407;-73
2022/10/16 08:14:11;;;;;;;10.60;3.10;;;15.30;84.40;;;;;;5030189;28;20458;-74
2022/10/16 08:16:36;;;;;;;6.50;3.00;;;15.30;85.30;;;;;;5033937;28;20436;-73
2022/10/16 08:19:02;;;;;;;6.35;2.60;;;15.30;83.20;;;;;;5031596;28;20780;-74
2022/10/16 08:21:28;;;;;;;3.45;2.78;;;15.40;81.30;;;;;;5032274;28;20410;-73
2022/10/16 08:23:54;;;;;;;8.30;2.80;;;15.60;77.50;;;;;;5034203;28;20414;-74
2022/10/16 08:26:20;;;;;;;6.00;2.47;;;15.70;76.90;;;;;;5034924;28;20534;-73
2022/10/16 08:28:49;;;;;;;6.57;2.53;;;15.70;76.50;;;;;;5031950;28;20444;-73
2022/10/16 08:31:16;;;;;;;5.15;2.20;;;15.90;73.00;;;;;;5030651;28;20706;-77
2022/10/16 08:33:44;;;;;;;4.95;2.10;;;16.00;68.80;;;;;;5032316;28;20475;-72
2022/10/16 08:36:10;;;;;;;5.13;2.10;;;15.90;70.00;;;;;;5030781;28;20899;-73
2022/10/16 08:38:37;;;;;;;6.72;2.22;;;16.00;70.20;;;;;;5031052;28;20776;-73
2022/10/16 08:41:24;;;;;;;7.35;2.30;;;16.00;70.30;;;;;;5030239;28;20457;-73
2022/10/16 08:44:18;;;;;;;2.53;2.10;;;16.20;66.80;;;;;;4999030;28;20417;-72
2022/10/16 08:46:56;;;;;;;2.75;1.98;;;16.30;67.20;;;;;;5015114;28;20981;-74
2022/10/16 08:49:24;;;;;;;4.30;2.55;;;16.40;65.40;;;;;;5033676;28;20456;-74
2022/10/16 08:51:50;;;;;;;8.25;2.20;;;16.50;64.10;;;;;;5032556;28;20456;-73
2022/10/16 08:54:36;;;;;;;5.45;2.80;;;16.70;62.80;;;;;;5033650;28;20402;-73
2022/10/16 08:57:16;;;;;;;8.00;2.50;;;16.60;63.00;;;;;;5033689;28;20380;-72
2022/10/16 08:59:43;;;;;;;3.30;1.75;;;16.60;61.90;;;;;;5034388;28;20387;-74
2022/10/16 09:02:22;;;;;;;5.05;2.20;;;16.80;58.60;;;;;;5033507;28;20391;-73
2022/10/16 09:05:00;;;;;;;6.10;1.90;;;16.90;58.20;;;;;;5035510;28;20772;-74
2022/10/16 09:07:49;;;;;;;3.53;1.60;;;17.00;56.60;;;;;;5039434;28;20383;-73
2022/10/16 09:10:35;;;;;;;5.85;1.60;;;16.90;57.60;;;;;;5037323;28;20467;-74
2022/10/16 09:13:10;;;;;;;3.90;1.37;;;17.20;55.90;;;;;;5032521;28;20464;-72
2022/10/16 09:16:08;;;;;;;6.38;1.80;;;17.20;53.80;;;;;;5034550;28;20403;-73
2022/10/16 09:18:44;;;;;;;5.63;1.58;;;17.20;53.70;;;;;;5034123;28;20499;-72
2022/10/16 09:21:28;;;;;;;5.93;1.40;;;17.30;49.50;;;;;;5033396;28;20391;-74
2022/10/16 09:23:58;;;;;;;4.10;1.33;;;17.30;51.50;;;;;;5032774;28;20410;-73
2022/10/16 09:26:23;;;;;;;3.80;1.40;;;17.40;51.50;;;;;;5033207;28;20383;-73
2022/10/16 09:28:52;;;;;;;5.25;1.30;;;17.40;49.20;;;;;;5033325;28;20395;-73
2022/10/16 09:31:20;;;;;;;5.70;1.70;;;17.50;50.30;;;;;;5035187;28;20415;-74
2022/10/16 09:33:51;;;;;;;2.90;1.20;;;17.50;48.30;;;;;;5035846;28;20391;-75
2022/10/16 09:36:18;;;;;;;4.82;1.33;;;17.50;46.80;;;;;;5034933;28;20407;-73
2022/10/16 09:38:43;;;;;;;4.80;1.50;;;17.50;48.70;;;;;;5033927;28;20407;-73
2022/10/16 09:41:12;;;;;;;6.03;1.40;;;17.60;46.60;;;;;;5034903;28;20886;-74
2022/10/16 09:43:47;;;;;;;4.55;1.40;;;17.60;46.20;;;;;;5033184;28;20402;-74
2022/10/16 09:46:33;;;;;;;6.20;1.70;;;17.60;47.20;;;;;;5034276;28;20407;-73
2022/10/16 09:49:01;;;;;;;2.85;1.40;;;17.70;46.20;;;;;;5034580;28;20402;-74
2022/10/16 09:51:32;;;;;;;5.63;1.50;;;17.70;46.00;;;;;;5036775;28;20620;-73
2022/10/16 09:54:01;;;;;;;6.63;1.60;;;17.70;45.20;;;;;;5034821;28;20421;-75
2022/10/16 09:56:36;;;;;;;4.40;1.67;;;17.80;45.40;;;;;;5032975;28;20403;-71
2022/10/16 09:59:10;;;;;;;3.78;1.30;;;17.90;45.10;;;;;;5031521;28;20415;-72
2022/10/16 10:01:39;;;;;;;5.60;1.70;;;17.90;44.20;;;;;;5030612;28;20391;-74
2022/10/16 10:04:06;;;;;;;3.08;1.23;;;17.90;44.80;;;;;;5032528;28;20838;-71
2022/10/16 10:06:40;;;;;;;3.38;1.30;;;18.00;43.80;;;;;;5032038;28;20391;-74
2022/10/16 10:09:13;;;;;;;5.07;1.55;;;18.00;43.30;;;;;;5029752;28;20391;-74
2022/10/16 10:11:58;;;;;;;5.60;1.67;;;18.00;43.40;;;;;;5030386;28;20419;-74
2022/10/16 10:14:43;;;;;;;4.43;1.50;;;18.00;44.20;;;;;;5028526;28;20395;-73
2022/10/16 10:17:16;;;;;;;5.20;1.50;;;18.10;42.60;;;;;;5030483;28;20392;-72
2022/10/16 10:19:52;;;;;;;6.22;1.40;;;18.20;41.80;;;;;;5030881;28;20395;-73
2022/10/16 10:22:19;;;;;;;7.72;1.60;;;18.10;41.40;;;;;;5030377;28;20473;-75
2022/10/16 10:24:55;;;;;;;7.32;1.50;;;17.90;42.70;;;;;;5031186;28;20477;-72
2022/10/16 10:27:29;;;;;;;3.00;1.30;;;17.80;44.10;;;;;;5030480;28;20504;-71
2022/10/16 10:30:18;;;;;;;6.18;1.40;;;17.70;44.30;;;;;;5029341;28;20752;-73
2022/10/16 10:33:08;;;;;;;6.70;1.65;;;17.80;41.60;;;;;;5030441;28;20889;-74
2022/10/16 10:35:47;;;;;;;4.30;1.30;;;17.80;41.50;;;;;;5040459;28;20383;-74
2022/10/16 10:38:44;;;;;;;4.30;1.30;;;17.80;41.50;;;;;;5040424;28;20896;-74
2022/10/16 10:41:14;;;;;;;3.47;1.20;;;17.90;41.00;;;;;;5030303;28;20458;-74
2022/10/16 10:43:45;;;;;;;3.75;1.30;;;17.90;41.30;;;;;;5030203;28;20411;-72
2022/10/16 10:46:19;;;;;;;5.00;1.20;;;17.90;41.10;;;;;;5029762;28;20430;-71
2022/10/16 10:48:55;;;;;;;4.45;1.80;;;17.80;40.80;;;;;;5029914;28;20394;-74
2022/10/16 10:51:39;;;;;;;5.35;1.50;;;17.70;42.70;;;;;;5029414;28;20387;-73
2022/10/16 10:54:23;;;;;;;6.25;1.40;;;17.80;41.60;;;;;;5031789;28;20802;-73
2022/10/16 10:57:07;;;;;;;4.32;1.40;;;17.80;40.70;;;;;;5029749;28;20423;-72
2022/10/16 10:59:52;;;;;;;4.13;1.35;;;18.00;39.30;;;;;;5030390;28;20474;-73
2022/10/16 11:02:53;;;;;;;5.22;1.60;;;18.00;39.00;;;;;;5030576;28;20416;-72
2022/10/16 11:05:30;;;;;;;7.20;1.35;;;17.90;39.90;;;;;;4987672;28;20414;-72
2022/10/16 11:08:19;;;;;;;7.43;1.48;;;18.00;39.70;;;;;;5021550;28;20399;-73
2022/10/16 11:10:53;;;;;;;3.35;1.20;;;18.10;40.20;;;;;;5031185;28;20411;-72
2022/10/16 11:13:40;;;;;;;6.85;1.42;;;18.30;38.10;;;;;;5029524;28;20391;-72
2022/10/16 11:16:17;;;;;;;5.35;1.40;;;18.40;37.80;;;;;;5030436;28;20815;-73
2022/10/16 11:19:20;;;;;;;5.70;1.80;;;18.50;36.50;;;;;;5036207;28;20400;-73
2022/10/16 11:21:59;;;;;;;4.93;1.30;;;18.50;35.70;;;;;;5041745;28;20407;-75
2022/10/16 11:24:55;;;;;;;3.47;1.73;;;18.50;35.30;;;;;;5034737;28;20426;-73
2022/10/16 11:27:39;;;;;;;5.32;1.63;;;18.60;35.50;;;;;;5018099;28;20399;-72
2022/10/16 11:30:19;;;;;;;3.25;1.25;;;18.70;35.00;;;;;;5029397;28;20506;-75
2022/10/16 11:33:08;;;;;;;3.70;0.95;;;18.70;35.20;;;;;;5028502;28;20375;-72
2022/10/16 11:35:40;;;;;;;3.72;1.40;;;18.70;34.60;;;;;;5029799;28;20436;-72
2022/10/16 11:38:14;;;;;;;3.08;1.20;;;18.80;35.40;;;;;;5029167;28;20395;-72
2022/10/16 11:40:43;;;;;;;3.50;1.50;;;18.80;34.90;;;;;;5029558;28;20421;-72
2022/10/16 11:43:21;;;;;;;5.57;1.60;;;19.00;34.70;;;;;;5028311;28;20502;-72
2022/10/16 11:45:55;;;;;;;3.22;1.35;;;19.00;33.60;;;;;;5029144;28;20395;-72
2022/10/16 11:48:41;;;;;;;4.10;1.35;;;19.10;32.80;;;;;;5027965;28;20505;-73
2022/10/16 11:51:31;;;;;;;1.67;1.10;;;19.10;31.40;;;;;;5030865;28;20419;-73
2022/10/16 11:54:25;;;;;;;4.78;1.20;;;19.10;31.90;;;;;;5030386;28;20391;-72
2022/10/16 11:56:54;;;;;;;5.20;1.55;;;19.10;33.30;;;;;;5033847;28;20445;-74
2022/10/16 11:59:41;;;;;;;3.47;1.08;;;19.00;32.00;;;;;;5031536;28;20399;-72
2022/10/16 12:02:22;;;;;;;6.40;1.50;;;18.80;31.60;;;;;;5032174;28;20387;-74
2022/10/16 12:05:20;;;;;;;3.30;1.20;;;18.80;32.80;;;;;;5034094;28;20416;-74
2022/10/16 12:08:12;;;;;;;5.18;1.20;;;18.90;31.60;;;;;;5026172;28;20407;-73
2022/10/16 12:10:39;;;;;;;3.42;1.15;;;19.10;30.50;;;;;;5036423;28;20395;-73
2022/10/16 12:13:28;;;;;;;2.58;1.00;;;19.20;30.70;;;;;;5036894;28;20387;-74
2022/10/16 12:16:20;;;;;;;3.25;1.55;;;19.10;31.20;;;;;;5036847;28;20387;-73
2022/10/16 12:18:47;;;;;;;3.50;1.20;;;19.20;31.10;;;;;;5037116;28;20403;-75
2022/10/16 12:21:15;;;;;;;2.75;1.20;;;19.30;30.30;;;;;;5037134;28;20776;-73
2022/10/16 12:24:03;;;;;;;3.75;1.42;;;19.40;30.30;;;;;;5039738;28;20406;-74
2022/10/16 12:26:32;;;;;;;3.95;1.48;;;19.60;29.90;;;;;;5039012;28;20414;-74
2022/10/16 12:29:34;;;;;;;5.93;1.20;;;19.90;29.00;;;;;;5040901;28;20939;-73
2022/10/16 12:32:01;;;;;;;2.50;1.15;;;20.20;28.40;;;;;;5032735;28;20555;-73
2022/10/16 12:34:42;;;;;;;3.30;1.20;;;20.50;27.30;;;;;;5037417;28;20386;-74
2022/10/16 12:37:11;;;;;;;5.53;1.30;;;20.60;26.70;;;;;;5036525;28;20459;-74
2022/10/16 12:39:37;;;;;;;8.00;1.80;;;20.60;27.30;;;;;;5037665;28;20390;-74
2022/10/16 12:42:05;;;;;;;2.77;1.03;;;20.60;27.00;;;;;;5032806;28;20471;-72
2022/10/16 12:44:35;;;;;;;3.60;1.40;;;20.70;26.10;;;;;;5034268;28;20415;-74
2022/10/16 12:47:02;;;;;;;6.40;1.60;;;20.80;26.80;;;;;;5034075;28;20379;-73
2022/10/16 12:49:27;;;;;;;3.85;1.45;;;21.20;26.10;;;;;;5031662;28;20399;-73
2022/10/16 12:51:53;;;;;;;3.08;1.55;;;21.00;25.60;;;;;;5031140;28;20418;-74
2022/10/16 12:54:41;;;;;;;5.60;1.70;;;21.00;26.30;;;;;;5031940;28;20475;-73
2022/10/16 12:57:32;;;;;;;4.10;1.20;;;21.00;26.00;;;;;;5032290;28;20387;-74
2022/10/16 13:00:33;;;;;;;5.55;1.10;;;20.70;25.80;;;;;;5032338;28;20419;-74
2022/10/16 13:03:13;;;;;;;4.43;1.23;;;20.50;26.90;;;;;;5024648;28;20768;-72
2022/10/16 13:06:11;;;;;;;5.40;1.50;;;20.40;27.00;;;;;;5032202;28;20387;-73